Time;durP1;ratioP1;P1;durP2;ratioP2;P2;SDS_P1;SDS_P2;PMS_P1;PMS_P2;Temp;Humidity;BMP_temperature;BMP_pressure;BME280_temperature;BME280_humidity;BME280_pressure;Samples;Min_cycle;Max_cycle;Signal;HPM_P1;HPM_P2
2024/01/26 00:00:13;;;;;;;1.30;1.17;;;;;;;10.51;nan;100708.50;4969118;28;20206;-83
2024/01/26 00:02:40;;;;;;;2.08;1.20;;;;;;;10.49;nan;100710.34;4967850;28;20499;-83
2024/01/26 00:05:06;;;;;;;3.13;2.30;;;;;;;10.46;nan;100709.66;4966847;28;21031;-83
2024/01/26 00:07:32;;;;;;;1.15;1.05;;;;;;;10.42;nan;100698.41;4966951;28;20097;-82
2024/01/26 00:09:57;;;;;;;3.37;1.00;;;;;;;10.41;nan;100699.34;4982258;28;20210;-83
2024/01/26 00:12:25;;;;;;;3.27;1.63;;;;;;;10.39;nan;100704.66;4965682;28;20232;-82
2024/01/26 00:14:51;;;;;;;2.38;1.20;;;;;;;10.40;nan;100714.25;4966273;28;20383;-81
2024/01/26 00:17:16;;;;;;;2.47;1.20;;;;;;;10.39;nan;100703.81;4968409;28;20225;-82
2024/01/26 00:19:41;;;;;;;2.20;1.47;;;;;;;10.33;nan;100697.06;4969308;28;20719;-82
2024/01/26 00:22:07;;;;;;;1.77;1.30;;;;;;;10.25;nan;100693.06;4965648;28;20211;-82
2024/01/26 00:24:32;;;;;;;4.03;1.90;;;;;;;10.15;nan;100690.84;4966072;28;20236;-82
2024/01/26 00:26:58;;;;;;;2.97;1.63;;;;;;;10.10;nan;100698.06;4963592;28;20222;-83
2024/01/26 00:29:24;;;;;;;3.13;1.73;;;;;;;10.06;nan;100701.75;4965326;28;20206;-83
2024/01/26 00:31:49;;;;;;;2.73;1.77;;;;;;;10.04;nan;100703.56;4965396;28;20216;-83
2024/01/26 00:34:14;;;;;;;4.40;1.77;;;;;;;10.06;nan;100712.22;4967106;28;20747;-83
2024/01/26 00:36:40;;;;;;;4.23;1.70;;;;;;;10.08;nan;100715.66;4967225;28;20214;-83
2024/01/26 00:39:06;;;;;;;2.73;1.60;;;;;;;10.05;nan;100714.94;4968241;28;20216;-83
2024/01/26 00:41:33;;;;;;;2.17;1.17;;;;;;;10.00;nan;100717.75;4967908;28;20237;-83
2024/01/26 00:44:01;;;;;;;2.10;1.30;;;;;;;9.98;nan;100707.31;4967056;28;20312;-84
2024/01/26 00:46:27;;;;;;;1.55;1.20;;;;;;;10.00;nan;100706.41;4963557;28;20304;-81
2024/01/26 00:48:53;;;;;;;3.10;1.07;;;;;;;10.00;nan;100707.25;4968262;28;20239;-82
2024/01/26 00:51:18;;;;;;;4.83;1.50;;;;;;;9.98;nan;100707.31;4967863;28;20213;-83
2024/01/26 00:53:44;;;;;;;1.33;1.13;;;;;;;9.97;nan;100710.03;4967338;28;20574;-83
2024/01/26 00:56:10;;;;;;;2.30;1.40;;;;;;;9.93;nan;100717.16;4967917;28;20298;-83
2024/01/26 00:58:36;;;;;;;1.35;0.90;;;;;;;9.87;nan;100717.44;4965911;28;20478;-81
2024/01/26 01:01:02;;;;;;;1.97;1.33;;;;;;;9.82;nan;100721.16;4965840;28;20209;-81
2024/01/26 01:03:28;;;;;;;2.97;1.45;;;;;;;9.79;nan;100724.78;4964972;28;21167;-80
2024/01/26 01:05:53;;;;;;;2.10;1.20;;;;;;;9.80;nan;100721.22;4967831;28;20570;-81
2024/01/26 01:08:22;;;;;;;1.90;1.20;;;;;;;9.81;nan;100715.06;4968172;28;20438;-81
2024/01/26 01:10:50;;;;;;;2.30;1.90;;;;;;;9.81;nan;100715.06;4965148;28;20463;-81
2024/01/26 01:13:16;;;;;;;2.88;1.38;;;;;;;9.83;nan;100709.75;4966705;28;20221;-81
2024/01/26 01:15:41;;;;;;;2.10;1.70;;;;;;;9.83;nan;100705.38;4960866;28;20225;-81
2024/01/26 01:18:07;;;;;;;2.57;1.70;;;;;;;9.84;nan;100712.31;4972643;28;20248;-80
2024/01/26 01:20:32;;;;;;;1.80;1.37;;;;;;;9.87;nan;100716.59;4965220;28;20606;-81
2024/01/26 01:22:58;;;;;;;1.70;1.60;;;;;;;9.91;nan;100712.91;4965197;28;20225;-80
2024/01/26 01:25:27;;;;;;;2.05;1.70;;;;;;;9.95;nan;100714.47;4965992;28;20219;-80
2024/01/26 01:27:55;;;;;;;2.10;1.90;;;;;;;10.00;nan;100716.91;4968494;28;20215;-80
2024/01/26 01:30:21;;;;;;;1.70;1.40;;;;;;;10.07;nan;100718.34;4968140;28;20497;-80
2024/01/26 01:32:46;;;;;;;1.90;1.33;;;;;;;10.13;nan;100711.06;4967998;28;20242;-81
2024/01/26 01:35:11;;;;;;;2.13;1.77;;;;;;;10.21;nan;100708.09;4962927;28;20253;-86
2024/01/26 01:37:37;;;;;;;1.40;1.20;;;;;;;10.28;nan;100714.78;4963429;28;20457;-87
2024/01/26 01:40:03;;;;;;;1.73;1.20;;;;;;;10.36;nan;100709.19;4962332;28;20208;-86
2024/01/26 01:42:31;;;;;;;1.63;1.35;;;;;;;10.42;nan;100698.41;4962946;28;20213;-87
2024/01/26 01:44:57;;;;;;;1.30;1.20;;;;;;;10.46;nan;100697.38;4978335;28;20235;-87
2024/01/26 01:47:25;;;;;;;1.77;1.10;;;;;;;10.51;nan;100705.03;4963966;28;20328;-87
2024/01/26 01:49:51;;;;;;;1.58;1.30;;;;;;;10.54;nan;100695.22;4961090;28;20229;-87
2024/01/26 01:52:17;;;;;;;2.07;1.50;;;;;;;10.58;nan;100688.06;4961276;28;20195;-87
2024/01/26 01:54:43;;;;;;;1.70;1.40;;;;;;;10.60;nan;100691.47;4962303;28;20218;-88
2024/01/26 01:57:12;;;;;;;5.07;1.80;;;;;;;10.62;nan;100690.47;4957391;28;20230;-84
2024/01/26 01:59:41;;;;;;;3.45;1.25;;;;;;;10.63;nan;100680.81;4958184;28;21263;-85
2024/01/26 02:02:07;;;;;;;2.03;1.40;;;;;;;10.63;nan;100679.03;4955741;28;20226;-84
2024/01/26 02:04:32;;;;;;;1.23;1.10;;;;;;;10.65;nan;100686.00;4957940;28;20312;-84
2024/01/26 02:07:00;;;;;;;2.40;1.10;;;;;;;10.68;nan;100688.50;4953716;28;20492;-84
2024/01/26 02:09:26;;;;;;;1.60;1.40;;;;;;;10.73;nan;100697.84;4955477;28;20469;-84
2024/01/26 02:11:52;;;;;;;2.10;1.45;;;;;;;10.75;nan;100693.38;4954533;28;20239;-84
2024/01/26 02:14:18;;;;;;;2.63;1.30;;;;;;;10.77;nan;100688.91;4959019;28;20761;-84
2024/01/26 02:16:58;;;;;;;1.47;1.30;;;;;;;10.77;nan;100688.91;4956145;28;20477;-84
2024/01/26 02:19:24;;;;;;;1.80;1.10;;;;;;;10.79;nan;100687.06;4953586;28;20542;-84
2024/01/26 02:21:51;;;;;;;1.98;1.30;;;;;;;10.81;nan;100685.22;4952246;28;20207;-84
2024/01/26 02:24:17;;;;;;;1.73;1.20;;;;;;;10.83;nan;100687.78;4954827;28;21358;-84
2024/01/26 02:26:43;;;;;;;1.63;1.20;;;;;;;10.82;nan;100692.16;4954114;28;20212;-84
2024/01/26 02:29:15;;;;;;;0.97;0.80;;;;;;;10.85;nan;100685.91;4955353;28;20199;-83
2024/01/26 02:31:40;;;;;;;1.40;1.00;;;;;;;10.89;nan;100676.13;4955915;28;20557;-84
2024/01/26 02:34:12;;;;;;;2.07;1.07;;;;;;;10.89;nan;100687.47;4962851;28;20274;-86
2024/01/26 02:36:38;;;;;;;1.58;1.15;;;;;;;10.90;nan;100680.44;4960065;28;20283;-87
2024/01/26 02:39:05;;;;;;;1.70;1.02;;;;;;;10.93;nan;100685.53;4961384;28;20791;-87
2024/01/26 02:41:32;;;;;;;1.70;1.13;;;;;;;10.94;nan;100695.16;4958587;28;20205;-88
2024/01/26 02:44:01;;;;;;;3.33;1.10;;;;;;;10.92;nan;100704.88;4961025;28;20216;-89
2024/01/26 02:46:27;;;;;;;3.03;1.10;;;;;;;10.93;nan;100698.69;4960587;28;20212;-88
2024/01/26 02:48:52;;;;;;;1.33;1.07;;;;;;;10.95;nan;100695.06;4961934;28;20765;-86
2024/01/26 02:51:18;;;;;;;0.90;0.77;;;;;;;10.95;nan;100707.38;4959211;28;20198;-84
2024/01/26 02:53:44;;;;;;;6.60;1.07;;;;;;;10.96;nan;100719.56;4958187;28;20226;-83
2024/01/26 02:56:09;;;;;;;1.10;1.00;;;;;;;10.94;nan;100706.50;4960430;28;20215;-83
2024/01/26 02:58:36;;;;;;;1.33;0.90;;;;;;;10.98;nan;100709.84;4958883;28;20266;-83
2024/01/26 03:01:02;;;;;;;1.80;1.05;;;;;;;10.98;nan;100701.97;4957667;28;20275;-84
2024/01/26 03:03:28;;;;;;;1.90;1.27;;;;;;;10.97;nan;100701.09;4955953;28;20214;-84
2024/01/26 03:05:53;;;;;;;2.30;1.05;;;;;;;11.01;nan;100697.38;4957261;28;20537;-84
2024/01/26 03:08:19;;;;;;;2.30;0.90;;;;;;;11.05;nan;100706.00;4959439;28;20706;-85
2024/01/26 03:10:45;;;;;;;1.70;0.90;;;;;;;11.07;nan;100709.38;4960341;28;20235;-83
2024/01/26 03:13:11;;;;;;;1.00;0.87;;;;;;;11.09;nan;100710.16;4958274;28;20471;-84
2024/01/26 03:15:39;;;;;;;1.20;1.03;;;;;;;11.08;nan;100705.84;4958316;28;20219;-84
2024/01/26 03:18:05;;;;;;;1.23;1.13;;;;;;;11.10;nan;100705.75;4971816;28;20477;-84
2024/01/26 03:20:33;;;;;;;1.63;1.00;;;;;;;11.11;nan;100707.47;4958529;28;20210;-84
2024/01/26 03:23:01;;;;;;;2.03;1.23;;;;;;;11.10;nan;100713.66;4958956;28;20205;-84
2024/01/26 03:25:27;;;;;;;1.45;1.10;;;;;;;11.09;nan;100707.53;4957606;28;20226;-84
2024/01/26 03:27:52;;;;;;;2.10;1.10;;;;;;;11.09;nan;100702.28;4957480;28;20208;-84
2024/01/26 03:30:17;;;;;;;1.53;1.00;;;;;;;11.08;nan;100695.34;4957203;28;20684;-84
2024/01/26 03:32:43;;;;;;;2.17;1.17;;;;;;;11.10;nan;100692.63;4958887;28;20207;-84
2024/01/26 03:35:09;;;;;;;1.33;0.93;;;;;;;11.09;nan;100699.66;4958645;28;20242;-81
2024/01/26 03:37:38;;;;;;;2.17;1.10;;;;;;;11.08;nan;100692.72;4960808;28;20420;-83
2024/01/26 03:40:04;;;;;;;1.10;0.90;;;;;;;11.07;nan;100693.59;4963982;28;20203;-84
2024/01/26 03:42:30;;;;;;;1.65;1.02;;;;;;;11.07;nan;100704.13;4967011;28;20680;-83
2024/01/26 03:44:55;;;;;;;1.73;1.10;;;;;;;11.05;nan;100701.59;4965976;28;20209;-84
2024/01/26 03:47:24;;;;;;;2.30;1.02;;;;;;;11.04;nan;100712.16;4963359;28;20216;-83
2024/01/26 03:49:49;;;;;;;1.20;1.10;;;;;;;11.03;nan;100713.09;4963356;28;20312;-83
2024/01/26 03:52:15;;;;;;;1.20;1.10;;;;;;;11.02;nan;100714.88;4962354;28;20283;-83
2024/01/26 03:54:41;;;;;;;0.80;0.80;;;;;;;11.03;nan;100715.72;4961081;28;20269;-83
2024/01/26 03:57:07;;;;;;;1.50;0.97;;;;;;;11.03;nan;100705.22;4960634;28;20552;-83
2024/01/26 03:59:32;;;;;;;1.63;1.00;;;;;;;11.03;nan;100716.59;4959988;28;20955;-83
2024/01/26 04:02:00;;;;;;;1.87;0.80;;;;;;;11.01;nan;100707.91;4962939;28;20895;-83
2024/01/26 04:04:26;;;;;;;2.05;1.20;;;;;;;11.01;nan;100696.53;4964916;28;20220;-82
2024/01/26 04:06:51;;;;;;;2.63;1.00;;;;;;;11.00;nan;100692.22;4961951;28;20226;-82
2024/01/26 04:09:17;;;;;;;1.58;1.20;;;;;;;11.01;nan;100693.91;4964120;28;20457;-83
2024/01/26 04:11:42;;;;;;;1.97;1.00;;;;;;;11.00;nan;100684.34;4966243;28;20201;-83
2024/01/26 04:14:08;;;;;;;1.60;1.13;;;;;;;11.00;nan;100692.22;4965686;28;20772;-83
2024/01/26 04:16:34;;;;;;;1.63;0.90;;;;;;;11.00;nan;100679.09;4970107;28;20205;-83
2024/01/26 04:18:59;;;;;;;3.00;1.13;;;;;;;10.99;nan;100686.13;4966415;28;20200;-84
2024/01/26 04:21:24;;;;;;;1.87;1.00;;;;;;;10.99;nan;100695.75;4963569;28;20218;-83
2024/01/26 04:23:59;;;;;;;1.37;1.03;;;;;;;10.98;nan;100700.16;4966210;28;20215;-85
2024/01/26 04:26:25;;;;;;;2.38;0.93;;;;;;;10.97;nan;100700.25;4961611;28;20220;-84
2024/01/26 04:28:51;;;;;;;2.75;1.30;;;;;;;10.96;nan;100694.13;4958737;28;20209;-84
2024/01/26 04:31:16;;;;;;;1.63;1.23;;;;;;;10.98;nan;100701.97;4962573;28;20262;-84
2024/01/26 04:34:21;;;;;;;1.73;1.00;;;;;;;11.00;nan;100686.97;4963896;28;20239;-84
2024/01/26 04:36:51;;;;;;;1.20;1.10;;;;;;;11.00;nan;100679.94;4978260;28;21090;-83
2024/01/26 04:39:16;;;;;;;2.10;1.27;;;;;;;11.03;nan;100679.78;4964218;28;20691;-82
2024/01/26 04:41:43;;;;;;;1.10;1.00;;;;;;;11.04;nan;100680.63;4965066;28;20227;-83
2024/01/26 04:44:09;;;;;;;11.55;1.90;;;;;;;11.04;nan;100685.88;4968612;28;20570;-83
2024/01/26 04:46:36;;;;;;;1.35;0.95;;;;;;;11.04;nan;100676.25;4973897;28;20224;-83
2024/01/26 04:49:02;;;;;;;2.55;1.33;;;;;;;11.03;nan;100679.78;4962392;28;21701;-84
2024/01/26 04:51:28;;;;;;;2.65;1.35;;;;;;;11.03;nan;100678.94;4960827;28;20213;-83
2024/01/26 04:53:53;;;;;;;1.80;1.70;;;;;;;11.03;nan;100673.66;4961295;28;20210;-83
2024/01/26 04:56:20;;;;;;;5.43;2.80;;;;;;;11.02;nan;100680.72;4962827;28;20534;-83
2024/01/26 04:58:46;;;;;;;3.92;2.90;;;;;;;11.02;nan;100687.75;4956445;28;20288;-83
2024/01/26 05:01:11;;;;;;;11.20;4.90;;;;;;;11.03;nan;100682.41;4958680;28;20289;-84
2024/01/26 05:03:36;;;;;;;7.63;4.13;;;;;;;11.04;nan;100676.25;4958431;28;20219;-84
2024/01/26 05:06:02;;;;;;;7.67;3.00;;;;;;;11.07;nan;100677.84;4961684;28;20239;-83
2024/01/26 05:08:28;;;;;;;6.53;2.70;;;;;;;11.13;nan;100681.97;4959086;28;20206;-83
2024/01/26 05:10:54;;;;;;;3.30;2.70;;;;;;;11.16;nan;100693.19;4958036;28;20310;-83
2024/01/26 05:13:19;;;;;;;5.07;2.43;;;;;;;11.21;nan;100685.06;4958111;28;20615;-83
2024/01/26 05:15:45;;;;;;;1.77;1.23;;;;;;;11.25;nan;100686.63;4958993;28;20286;-85
2024/01/26 05:18:10;;;;;;;1.50;1.40;;;;;;;11.32;nan;100684.56;4959562;28;20238;-86
2024/01/26 05:20:35;;;;;;;4.10;2.57;;;;;;;11.38;nan;100684.25;4963706;28;20203;-87
2024/01/26 05:23:01;;;;;;;2.93;2.20;;;;;;;11.43;nan;100687.50;4965517;28;20230;-87
2024/01/26 05:25:32;;;;;;;4.37;3.00;;;;;;;11.46;nan;100684.72;4967659;28;20222;-87
2024/01/26 05:28:00;;;;;;;6.50;2.35;;;;;;;11.50;nan;100673.09;4979832;28;20608;-87
2024/01/26 05:30:26;;;;;;;4.93;2.75;;;;;;;11.52;nan;100677.34;4964683;28;20195;-86
2024/01/26 05:32:52;;;;;;;2.60;2.10;;;;;;;11.56;nan;100675.44;4963317;28;20270;-86
2024/01/26 05:35:17;;;;;;;3.70;1.80;;;;;;;11.58;nan;100672.69;4966518;28;20214;-86
2024/01/26 05:37:45;;;;;;;5.85;3.40;;;;;;;11.59;nan;100663.91;4963763;28;20426;-86
2024/01/26 05:40:11;;;;;;;3.33;2.30;;;;;;;11.58;nan;100663.03;4964375;28;20269;-86
2024/01/26 05:42:37;;;;;;;3.72;2.45;;;;;;;11.61;nan;100670.78;4963288;28;20567;-87
2024/01/26 05:45:06;;;;;;;3.73;2.30;;;;;;;11.65;nan;100672.31;4964696;28;20204;-87
2024/01/26 05:47:31;;;;;;;11.82;3.58;;;;;;;11.67;nan;100674.88;4964935;28;20522;-86
2024/01/26 05:49:56;;;;;;;2.67;1.83;;;;;;;11.67;nan;100675.72;4962302;28;20206;-87
2024/01/26 05:52:22;;;;;;;4.90;3.30;;;;;;;11.69;nan;100676.50;4960793;28;20548;-86
2024/01/26 05:54:47;;;;;;;7.37;4.70;;;;;;;11.71;nan;100679.03;4961355;28;20226;-87
2024/01/26 05:57:16;;;;;;;3.00;1.40;;;;;;;11.73;nan;100685.94;4960536;28;20200;-87
2024/01/26 05:59:42;;;;;;;1.38;1.20;;;;;;;11.76;nan;100695.47;4961103;28;20243;-87
2024/01/26 06:02:11;;;;;;;1.50;1.10;;;;;;;11.73;nan;100696.47;4960587;28;20191;-87
2024/01/26 06:04:37;;;;;;;1.60;1.00;;;;;;;11.73;nan;100703.50;4963383;28;20250;-87
2024/01/26 06:07:02;;;;;;;0.97;0.87;;;;;;;11.73;nan;100700.88;4962154;28;20793;-87
2024/01/26 06:09:30;;;;;;;1.50;1.07;;;;;;;11.79;nan;100704.97;4956835;28;20548;-86
2024/01/26 06:11:56;;;;;;;1.58;1.00;;;;;;;11.78;nan;100703.28;4955974;28;20295;-87
2024/01/26 06:14:21;;;;;;;2.10;1.53;;;;;;;11.79;nan;100707.63;4956946;28;20350;-86
2024/01/26 06:16:47;;;;;;;3.23;1.70;;;;;;;11.78;nan;100700.66;4954195;28;20196;-88
2024/01/26 06:19:15;;;;;;;4.68;2.15;;;;;;;11.76;nan;100702.50;4960239;28;20197;-87
2024/01/26 06:21:41;;;;;;;2.67;2.45;;;;;;;11.76;nan;100702.50;4958846;28;20811;-86
2024/01/26 06:24:06;;;;;;;3.30;2.23;;;;;;;11.76;nan;100699.88;4960807;28;20823;-86
2024/01/26 06:26:32;;;;;;;1.57;1.37;;;;;;;11.73;nan;100691.19;4959862;28;22072;-87
2024/01/26 06:28:57;;;;;;;1.37;1.00;;;;;;;11.73;nan;100690.34;4961375;28;20197;-87
2024/01/26 06:31:26;;;;;;;1.40;1.20;;;;;;;11.74;nan;100686.78;4960700;28;20681;-86
2024/01/26 06:33:52;;;;;;;1.58;1.30;;;;;;;11.75;nan;100693.75;4960162;28;20555;-85
2024/01/26 06:36:21;;;;;;;2.22;1.35;;;;;;;11.80;nan;100689.13;4960389;28;20196;-85
2024/01/26 06:38:46;;;;;;;3.53;1.52;;;;;;;11.82;nan;100696.91;4960064;28;20441;-85
2024/01/26 06:41:12;;;;;;;3.77;1.87;;;;;;;11.85;nan;100688.84;4962242;28;20206;-86
2024/01/26 06:43:37;;;;;;;2.57;1.30;;;;;;;11.85;nan;100688.84;4958086;28;20826;-86
2024/01/26 06:46:06;;;;;;;4.47;2.00;;;;;;;11.86;nan;100695.88;4960644;28;20243;-85
2024/01/26 06:48:31;;;;;;;3.00;1.88;;;;;;;11.88;nan;100691.38;4961826;28;20203;-86
2024/01/26 06:50:56;;;;;;;4.63;2.83;;;;;;;11.91;nan;100696.50;4964733;28;20210;-86
2024/01/26 06:53:22;;;;;;;4.20;1.60;;;;;;;11.92;nan;100690.28;4963083;28;20213;-86
2024/01/26 06:55:47;;;;;;;4.43;2.73;;;;;;;11.94;nan;100693.69;4963662;28;20206;-86
2024/01/26 06:58:17;;;;;;;3.70;2.20;;;;;;;11.95;nan;100708.56;4960131;28;20198;-86
2024/01/26 07:00:47;;;;;;;1.13;0.90;;;;;;;11.94;nan;100693.69;4960020;28;20731;-86
2024/01/26 07:03:12;;;;;;;1.23;1.13;;;;;;;11.95;nan;100700.66;4961199;28;20204;-87
2024/01/26 07:05:37;;;;;;;2.60;1.60;;;;;;;11.97;nan;100698.81;4960973;28;21152;-86
2024/01/26 07:08:06;;;;;;;1.83;1.13;;;;;;;11.97;nan;100709.34;4962590;28;20306;-86
2024/01/26 07:10:32;;;;;;;2.20;1.35;;;;;;;11.94;nan;100706.88;4961244;28;20196;-86
2024/01/26 07:12:57;;;;;;;1.30;1.03;;;;;;;11.93;nan;100710.41;4962506;28;20593;-87
2024/01/26 07:15:23;;;;;;;3.27;1.20;;;;;;;11.94;nan;100704.22;4961080;28;20227;-87
2024/01/26 07:17:51;;;;;;;4.30;1.27;;;;;;;11.94;nan;100712.13;4959680;28;20310;-87
2024/01/26 07:20:17;;;;;;;1.63;1.13;;;;;;;11.94;nan;100706.88;4961477;28;20197;-87
2024/01/26 07:22:42;;;;;;;1.77;1.20;;;;;;;11.94;nan;100712.13;4997716;23;20447;-79
2024/01/26 07:25:11;;;;;;;1.23;1.07;;;;;;;11.92;nan;100719.25;4925658;28;20753;-79
2024/01/26 07:27:38;;;;;;;1.25;1.10;;;;;;;11.92;nan;100706.09;4946172;28;20217;-80
2024/01/26 07:30:08;;;;;;;1.27;1.17;;;;;;;11.90;nan;100711.41;4963451;28;20414;-80
2024/01/26 07:32:34;;;;;;;1.75;1.13;;;;;;;11.90;nan;100718.47;4962758;28;20298;-80
2024/01/26 07:34:59;;;;;;;2.00;1.10;;;;;;;11.89;nan;100711.50;4963767;28;20216;-80
2024/01/26 07:37:24;;;;;;;2.10;1.60;;;;;;;11.91;nan;100702.59;4961992;28;20448;-80
2024/01/26 07:39:50;;;;;;;3.37;1.40;;;;;;;11.89;nan;100693.94;4962070;28;20200;-80
2024/01/26 07:42:15;;;;;;;1.73;1.40;;;;;;;11.92;nan;100699.03;4965641;28;20228;-80
2024/01/26 07:44:40;;;;;;;2.10;1.70;;;;;;;11.92;nan;100690.28;4965278;28;20545;-80
2024/01/26 07:47:06;;;;;;;1.30;1.07;;;;;;;11.96;nan;100678.66;4966442;28;20312;-80
2024/01/26 07:49:31;;;;;;;2.70;1.50;;;;;;;11.97;nan;100675.09;4968641;28;20200;-80
2024/01/26 07:51:57;;;;;;;0.97;0.87;;;;;;;11.98;nan;100671.53;4965716;28;20220;-81
2024/01/26 07:54:22;;;;;;;1.70;1.60;;;;;;;11.98;nan;100683.84;4966095;28;20681;-80
2024/01/26 07:56:47;;;;;;;1.33;1.23;;;;;;;11.99;nan;100675.88;4964226;28;20234;-80
2024/01/26 07:59:13;;;;;;;2.80;1.30;;;;;;;12.01;nan;100683.69;4967436;28;20208;-80
2024/01/26 08:01:38;;;;;;;1.43;1.33;;;;;;;12.02;nan;100678.34;4966013;28;21235;-80
2024/01/26 08:04:04;;;;;;;1.60;1.43;;;;;;;12.07;nan;100670.19;4967478;28;20670;-80
2024/01/26 08:06:29;;;;;;;2.90;1.60;;;;;;;12.06;nan;100671.97;4969675;28;20217;-80
2024/01/26 08:09:52;;;;;;;1.67;1.53;;;;;;;12.07;nan;100688.63;4967885;28;20207;-80
2024/01/26 08:12:18;;;;;;;1.95;1.50;;;;;;;12.05;nan;100691.34;4948678;28;20823;-80
2024/01/26 08:14:43;;;;;;;4.70;1.50;;;;;;;12.08;nan;100685.06;4968646;28;20315;-79
2024/01/26 08:17:08;;;;;;;1.83;1.60;;;;;;;12.07;nan;100676.34;4973065;28;20251;-80
2024/01/26 08:19:37;;;;;;;1.60;1.50;;;;;;;12.06;nan;100682.50;4974567;28;20756;-80
2024/01/26 08:22:04;;;;;;;1.80;1.70;;;;;;;12.05;nan;100677.34;4970420;28;20244;-80
2024/01/26 08:24:29;;;;;;;1.75;1.60;;;;;;;12.08;nan;100685.91;4973209;28;21041;-80
2024/01/26 08:26:55;;;;;;;2.57;1.40;;;;;;;12.08;nan;100691.19;4979327;28;20224;-80
2024/01/26 08:29:24;;;;;;;2.30;1.60;;;;;;;12.10;nan;100691.13;4979489;28;20678;-80
2024/01/26 08:31:50;;;;;;;1.95;1.50;;;;;;;12.09;nan;100698.16;4971402;28;20563;-80
2024/01/26 08:34:16;;;;;;;2.17;1.83;;;;;;;12.10;nan;100691.97;4968773;28;20230;-80
2024/01/26 08:36:41;;;;;;;1.80;1.40;;;;;;;12.08;nan;100667.50;4968082;28;20599;-80
2024/01/26 08:39:11;;;;;;;3.70;2.10;;;;;;;12.10;nan;100678.78;4966365;28;20453;-80
2024/01/26 08:41:37;;;;;;;3.15;1.60;;;;;;;12.10;nan;100673.53;4971555;28;20209;-80
2024/01/26 08:44:03;;;;;;;2.67;1.80;;;;;;;12.10;nan;100673.53;4970025;28;20205;-80
2024/01/26 08:46:29;;;;;;;2.93;1.77;;;;;;;12.10;nan;100663.00;4967647;28;20333;-80
2024/01/26 08:48:54;;;;;;;4.17;3.67;;;;;;;12.11;nan;100664.69;4963952;28;20644;-80
2024/01/26 08:51:20;;;;;;;2.20;1.87;;;;;;;12.11;nan;100651.53;4958669;28;20303;-80
2024/01/26 08:53:45;;;;;;;2.30;1.83;;;;;;;12.20;nan;100657.22;4957986;28;20300;-79
2024/01/26 08:56:11;;;;;;;4.10;2.60;;;;;;;12.15;nan;100655.72;4957501;28;20240;-80
2024/01/26 08:58:37;;;;;;;3.87;2.43;;;;;;;12.13;nan;100646.19;4958441;28;20341;-80
2024/01/26 09:01:02;;;;;;;4.10;2.78;;;;;;;12.10;nan;100649.84;4958340;28;20263;-79
2024/01/26 09:03:28;;;;;;;8.03;1.70;;;;;;;12.10;nan;100639.28;4959668;28;20208;-80
2024/01/26 09:05:53;;;;;;;6.53;2.53;;;;;;;12.12;nan;100634.81;4965377;28;21473;-81
2024/01/26 09:08:18;;;;;;;2.70;2.20;;;;;;;12.14;nan;100643.44;4962558;28;20453;-80
2024/01/26 09:10:44;;;;;;;2.73;2.13;;;;;;;12.17;nan;100637.16;4967304;28;20206;-80
2024/01/26 09:13:09;;;;;;;3.90;1.83;;;;;;;12.18;nan;100631.00;4964395;28;20308;-80
2024/01/26 09:15:35;;;;;;;2.70;1.83;;;;;;;12.21;nan;100640.50;4964757;28;20611;-80
2024/01/26 09:18:01;;;;;;;2.10;2.00;;;;;;;12.22;nan;100634.28;4965435;28;20224;-81
2024/01/26 09:20:26;;;;;;;6.40;2.13;;;;;;;12.23;nan;100633.34;4967230;28;20240;-79
2024/01/26 09:22:52;;;;;;;1.73;1.60;;;;;;;12.23;nan;100642.09;4961031;28;20614;-80
2024/01/26 09:25:17;;;;;;;2.00;1.60;;;;;;;12.28;nan;100652.41;4963604;28;20231;-80
2024/01/26 09:27:45;;;;;;;2.40;2.20;;;;;;;12.29;nan;100662.03;4964969;28;20194;-80
2024/01/26 09:30:10;;;;;;;2.92;2.05;;;;;;;12.25;nan;100649.94;4964926;28;20262;-80
2024/01/26 09:32:36;;;;;;;2.20;1.90;;;;;;;12.23;nan;100652.63;4964924;28;20673;-80
2024/01/26 09:35:03;;;;;;;2.70;1.87;;;;;;;12.23;nan;100646.53;4966608;28;20208;-80
2024/01/26 09:37:29;;;;;;;3.17;2.88;;;;;;;12.25;nan;100649.94;4967732;28;20677;-80
2024/01/26 09:39:54;;;;;;;3.67;3.10;;;;;;;12.24;nan;100653.50;4966532;28;20200;-80
2024/01/26 09:42:20;;;;;;;3.57;3.13;;;;;;;12.25;nan;100655.19;4964578;28;20677;-80
2024/01/26 09:44:46;;;;;;;3.67;2.80;;;;;;;12.25;nan;100658.69;4967375;28;20215;-80
2024/01/26 09:47:14;;;;;;;8.60;3.53;;;;;;;12.29;nan;100654.13;4965880;28;20221;-80
2024/01/26 09:49:48;;;;;;;3.80;2.65;;;;;;;12.32;nan;100643.41;4965092;28;20218;-80
2024/01/26 09:52:16;;;;;;;4.20;3.03;;;;;;;12.35;nan;100651.13;4965275;28;20291;-80
2024/01/26 09:54:43;;;;;;;4.00;2.95;;;;;;;12.40;nan;100664.91;4967252;28;20259;-80
2024/01/26 09:57:10;;;;;;;7.35;3.35;;;;;;;12.40;nan;100664.91;4966605;28;20322;-80
2024/01/26 09:59:36;;;;;;;4.72;3.20;;;;;;;12.45;nan;100669.91;4965606;28;20216;-80
2024/01/26 10:02:02;;;;;;;4.63;3.23;;;;;;;12.46;nan;100669.84;4964723;28;20364;-80
2024/01/26 10:04:28;;;;;;;4.88;3.15;;;;;;;12.46;nan;100669.00;4964607;28;20308;-80
2024/01/26 10:06:53;;;;;;;6.73;3.90;;;;;;;12.51;nan;100666.97;4965149;28;21062;-82
2024/01/26 10:09:19;;;;;;;4.00;3.60;;;;;;;12.51;nan;100670.44;4963882;28;20459;-81
2024/01/26 10:11:44;;;;;;;3.60;3.27;;;;;;;12.50;nan;100675.78;4964470;28;20223;-82
2024/01/26 10:14:19;;;;;;;11.23;4.60;;;;;;;12.48;nan;100678.53;4964505;28;20756;-84
2024/01/26 10:16:55;;;;;;;3.75;3.10;;;;;;;12.50;nan;100684.56;4969124;28;20200;-84
2024/01/26 10:19:24;;;;;;;3.90;3.50;;;;;;;12.48;nan;100677.69;4967418;28;20230;-82
2024/01/26 10:22:01;;;;;;;4.20;3.55;;;;;;;12.46;nan;100672.47;4968848;28;20770;-83
2024/01/26 10:24:28;;;;;;;3.13;2.83;;;;;;;12.44;nan;100669.06;4965329;28;20208;-81
2024/01/26 10:26:54;;;;;;;5.47;4.57;;;;;;;12.43;nan;100674.44;4968658;28;20418;-81
2024/01/26 10:29:20;;;;;;;3.40;3.10;;;;;;;12.43;nan;100680.56;4964325;28;20638;-82
2024/01/26 10:31:46;;;;;;;4.75;3.17;;;;;;;12.43;nan;100672.66;4969815;28;20539;-83
2024/01/26 10:34:16;;;;;;;4.00;2.70;;;;;;;12.42;nan;100678.84;4962581;28;20490;-80
2024/01/26 10:36:43;;;;;;;3.42;2.90;;;;;;;12.42;nan;100670.09;4959741;28;21130;-81
2024/01/26 10:39:17;;;;;;;5.32;3.20;;;;;;;12.43;nan;100663.91;4960369;28;20449;-82
2024/01/26 10:45:28;;;;;;;3.15;2.85;;;;;;;12.43;nan;100656.00;4944348;28;20224;-81
2024/01/26 10:47:56;;;;;;;4.10;3.27;;;;;;;12.40;nan;100654.38;4962421;28;20264;-82
2024/01/26 10:50:21;;;;;;;3.67;3.13;;;;;;;12.42;nan;100647.22;4961945;28;21369;-82
2024/01/26 10:52:49;;;;;;;3.70;2.40;;;;;;;12.42;nan;100652.50;4960242;28;20743;-80
2024/01/26 10:55:17;;;;;;;4.70;3.13;;;;;;;12.45;nan;100641.81;4961376;28;20240;-81
2024/01/26 10:57:42;;;;;;;3.22;2.92;;;;;;;12.47;nan;100645.19;4962216;28;20701;-84
2024/01/26 11:00:12;;;;;;;4.20;3.07;;;;;;;12.45;nan;100651.47;4963739;28;20205;-83
2024/01/26 11:02:38;;;;;;;2.72;2.53;;;;;;;12.46;nan;100650.56;4962741;28;20285;-82
2024/01/26 11:05:07;;;;;;;5.95;2.83;;;;;;;12.43;nan;100659.47;4964605;28;20211;-82
2024/01/26 11:07:34;;;;;;;6.57;3.50;;;;;;;12.41;nan;100650.81;4966127;28;20192;-84
2024/01/26 11:10:04;;;;;;;6.88;4.80;;;;;;;12.39;nan;100655.28;4965234;28;20205;-85
2024/01/26 11:12:31;;;;;;;5.57;3.78;;;;;;;12.39;nan;100650.91;4965017;28;20638;-84
2024/01/26 11:15:04;;;;;;;3.17;2.33;;;;;;;12.35;nan;100649.34;4965418;28;20556;-81
2024/01/26 11:17:31;;;;;;;5.22;3.42;;;;;;;12.33;nan;100647.72;4966866;28;20241;-84
2024/01/26 11:20:00;;;;;;;2.85;2.40;;;;;;;12.32;nan;100648.69;4969568;28;20206;-83
2024/01/26 11:22:32;;;;;;;4.70;3.45;;;;;;;12.30;nan;100645.28;4968108;28;20232;-84
2024/01/26 11:24:58;;;;;;;4.40;3.45;;;;;;;12.26;nan;100641.09;4967771;28;20216;-83
2024/01/26 11:27:24;;;;;;;5.70;3.60;;;;;;;12.23;nan;100636.81;4969490;28;20218;-83
2024/01/26 11:29:49;;;;;;;4.50;4.10;;;;;;;12.20;nan;100628.25;4970553;28;21379;-85
2024/01/26 11:32:17;;;;;;;4.20;3.60;;;;;;;12.18;nan;100623.94;4971026;28;20221;-81
2024/01/26 11:34:42;;;;;;;4.53;3.65;;;;;;;12.14;nan;100619.75;4966044;28;20196;-83
2024/01/26 11:37:13;;;;;;;5.20;3.53;;;;;;;12.14;nan;100617.13;4966779;28;20747;-83
2024/01/26 11:40:33;;;;;;;4.70;4.05;;;;;;;12.12;nan;100619.00;4965877;28;20214;-83
2024/01/26 11:43:18;;;;;;;8.20;4.18;;;;;;;12.06;nan;100616.69;4956386;28;20628;-83